createdAt,value
2019-03-23T00:00:36.533Z,98.90
2019-03-23T00:03:07.260Z,97.20
2019-03-23T00:05:38.008Z,95.90
2019-03-23T00:08:08.637Z,95.10
2019-03-23T00:10:39.193Z,95.70
2019-03-23T00:13:09.802Z,95.50
2019-03-23T00:15:40.469Z,96.40
2019-03-23T00:18:11.135Z,97.50
2019-03-23T00:20:41.869Z,98.40
2019-03-23T00:23:12.455Z,97.20
2019-03-23T00:25:44.711Z,98.20
2019-03-23T00:28:16.240Z,99.90
2019-03-23T00:30:46.898Z,99.90
2019-03-23T00:33:17.420Z,99.90
2019-03-23T00:35:47.902Z,99.90
2019-03-23T00:38:18.561Z,99.90
2019-03-23T00:40:49.293Z,99.90
2019-03-23T00:43:19.887Z,99.90
2019-03-23T00:45:50.394Z,99.90
2019-03-23T00:48:22.002Z,99.90
2019-03-23T00:50:52.543Z,99.90
2019-03-23T00:53:23.120Z,99.90
2019-03-23T00:55:53.656Z,99.90
2019-03-23T00:58:24.344Z,99.90
2019-03-23T01:00:55.091Z,99.90
2019-03-23T01:03:25.571Z,99.90
2019-03-23T01:05:56.177Z,99.90
2019-03-23T01:08:26.844Z,99.50
2019-03-23T01:10:57.302Z,95.70
2019-03-23T01:13:27.970Z,97.30
2019-03-23T01:15:58.557Z,95.60
2019-03-23T01:18:29.176Z,94.60
2019-03-23T01:20:59.821Z,94.60
2019-03-23T01:23:30.463Z,97.00
2019-03-23T01:26:01.117Z,97.80
2019-03-23T01:28:31.816Z,96.50
2019-03-23T01:31:02.504Z,95.70
2019-03-23T01:33:33.026Z,96.00
2019-03-23T01:36:03.669Z,95.10
2019-03-23T01:38:34.386Z,94.70
2019-03-23T01:41:05.033Z,94.50
2019-03-23T01:43:35.555Z,96.20
2019-03-23T01:46:06.226Z,95.30
2019-03-23T01:48:36.792Z,93.90
2019-03-23T01:51:07.377Z,91.80
2019-03-23T01:53:38.306Z,91.30
2019-03-23T01:56:08.924Z,90.40
2019-03-23T01:58:39.767Z,90.40
2019-03-23T02:01:10.429Z,90.00
2019-03-23T02:03:41.119Z,89.80
2019-03-23T02:06:11.595Z,90.00
2019-03-23T02:08:42.350Z,90.40
2019-03-23T02:11:13.053Z,90.10
2019-03-23T02:13:43.667Z,90.60
2019-03-23T02:16:14.304Z,90.90
2019-03-23T02:18:45.003Z,91.10
2019-03-23T02:21:15.510Z,91.20
2019-03-23T02:23:46.006Z,91.50
2019-03-23T02:26:16.655Z,91.60
2019-03-23T02:28:47.164Z,91.40
2019-03-23T02:31:17.597Z,91.90
2019-03-23T02:33:48.313Z,92.20
2019-03-23T02:36:19.800Z,93.00
2019-03-23T02:38:50.470Z,93.70
2019-03-23T02:41:21.524Z,94.20
2019-03-23T02:43:52.072Z,93.90
2019-03-23T02:46:22.657Z,93.80
2019-03-23T02:48:53.334Z,93.60
2019-03-23T02:51:24.036Z,93.50
2019-03-23T02:53:54.683Z,94.40
2019-03-23T02:56:25.329Z,94.00
2019-03-23T02:58:55.946Z,95.10
2019-03-23T03:01:27.382Z,94.30
2019-03-23T03:03:57.871Z,96.30
2019-03-23T03:06:28.318Z,96.30
2019-03-23T03:08:59.099Z,98.60
2019-03-23T03:11:29.777Z,99.90
2019-03-23T03:14:00.246Z,99.90
2019-03-23T03:16:30.943Z,99.90
2019-03-23T03:19:01.681Z,99.90
2019-03-23T03:21:32.325Z,99.90
2019-03-23T03:24:02.867Z,99.90
2019-03-23T03:26:33.391Z,99.90
2019-03-23T03:29:04.502Z,99.90
2019-03-23T03:31:35.109Z,99.90
2019-03-23T03:34:05.630Z,99.90
2019-03-23T03:36:36.114Z,99.90
2019-03-23T03:39:09.012Z,99.90
2019-03-23T03:41:39.895Z,99.90
2019-03-23T03:44:11.012Z,99.90
2019-03-23T03:46:41.831Z,99.90
2019-03-23T03:49:13.112Z,99.90
2019-03-23T03:51:44.249Z,99.90
2019-03-23T03:54:33.460Z,99.90
2019-03-23T03:57:04.316Z,99.90
2019-03-23T03:59:35.073Z,99.90
2019-03-23T04:02:05.740Z,99.90
2019-03-23T04:04:36.593Z,99.90
2019-03-23T04:07:07.195Z,99.90
2019-03-23T04:09:40.341Z,99.90
2019-03-23T04:12:10.302Z,99.90
2019-03-23T04:14:40.893Z,99.90
2019-03-23T04:17:11.636Z,99.90
2019-03-23T04:19:42.268Z,99.90
2019-03-23T04:22:13.043Z,99.90
2019-03-23T04:24:44.340Z,99.90
2019-03-23T04:27:15.741Z,99.90
2019-03-23T04:29:49.336Z,99.90
2019-03-23T04:32:21.741Z,99.90
2019-03-23T04:34:53.580Z,99.90
2019-03-23T04:37:25.721Z,99.50
2019-03-23T04:39:57.214Z,98.90
2019-03-23T04:42:28.659Z,98.20
2019-03-23T04:44:59.747Z,98.10
2019-03-23T04:47:30.808Z,97.80
2019-03-23T04:50:01.556Z,97.70
2019-03-23T04:52:32.289Z,98.30
2019-03-23T04:55:04.334Z,98.50
2019-03-23T04:57:35.366Z,97.50
2019-03-23T05:00:07.185Z,96.40
2019-03-23T05:02:38.067Z,97.80
2019-03-23T05:05:08.983Z,97.20
2019-03-23T05:07:40.084Z,99.50
2019-03-23T05:10:11.968Z,98.70
2019-03-23T05:12:42.872Z,98.20
2019-03-23T05:15:13.927Z,99.10
2019-03-23T05:17:44.884Z,99.40
2019-03-23T05:20:27.898Z,99.90
2019-03-23T05:22:58.921Z,99.90
2019-03-23T05:25:30.305Z,99.90
2019-03-23T05:28:00.892Z,99.90
2019-03-23T05:30:31.397Z,99.90
2019-03-23T05:33:01.849Z,99.90
2019-03-23T05:35:32.309Z,99.90
2019-03-23T05:38:02.890Z,99.30
2019-03-23T05:40:33.383Z,99.90
2019-03-23T05:43:03.890Z,99.30
2019-03-23T05:45:34.307Z,98.70
2019-03-23T05:48:06.015Z,98.60
2019-03-23T05:50:36.584Z,98.80
2019-03-23T05:53:07.040Z,99.30
2019-03-23T05:55:37.611Z,99.90
2019-03-23T05:58:08.412Z,99.90
2019-03-23T06:00:38.832Z,99.90
2019-03-23T06:03:09.277Z,99.90
2019-03-23T06:05:39.790Z,99.90
2019-03-23T06:08:11.286Z,99.90
2019-03-23T06:10:41.818Z,99.90
2019-03-23T06:13:12.309Z,99.90
2019-03-23T06:15:42.812Z,99.90
2019-03-23T06:18:13.704Z,99.90
2019-03-23T06:21:03.077Z,99.90
2019-03-23T06:23:33.996Z,99.90
2019-03-23T06:26:06.421Z,99.90
2019-03-23T06:28:37.667Z,99.90
2019-03-23T06:31:08.494Z,99.90
2019-03-23T06:33:39.336Z,99.90
2019-03-23T06:36:10.007Z,99.90
2019-03-23T06:38:40.899Z,99.90
2019-03-23T06:41:11.835Z,99.90
2019-03-23T06:43:42.584Z,99.10
2019-03-23T06:46:13.272Z,99.90
2019-03-23T06:48:44.172Z,99.90
2019-03-23T06:51:14.954Z,99.80
2019-03-23T06:53:46.071Z,99.90
2019-03-23T06:56:17.059Z,99.90
2019-03-23T06:58:47.506Z,99.90
2019-03-23T07:01:17.967Z,99.60
2019-03-23T07:03:48.533Z,99.70
2019-03-23T07:06:18.971Z,99.90
2019-03-23T07:08:49.912Z,98.50
2019-03-23T07:11:20.388Z,98.10
2019-03-23T07:13:50.844Z,99.40
2019-03-23T07:16:21.272Z,99.20
2019-03-23T07:18:51.775Z,97.80
2019-03-23T07:21:26.892Z,98.50
2019-03-23T07:23:57.905Z,98.50
2019-03-23T07:26:28.393Z,97.90
2019-03-23T07:28:58.907Z,96.10
2019-03-23T07:31:29.366Z,97.90
2019-03-23T07:33:59.812Z,97.70
2019-03-23T07:36:30.236Z,96.80
2019-03-23T07:39:00.708Z,97.00
2019-03-23T07:41:31.173Z,97.00
2019-03-23T07:44:01.620Z,96.90
2019-03-23T07:46:32.083Z,97.20
2019-03-23T07:49:03.196Z,96.80
2019-03-23T07:51:34.027Z,96.50
2019-03-23T07:54:04.556Z,97.10
2019-03-23T07:56:35.597Z,98.10
2019-03-23T07:59:06.127Z,97.10
2019-03-23T08:01:36.620Z,96.90
2019-03-23T08:04:07.117Z,97.70
2019-03-23T08:06:37.591Z,97.40
2019-03-23T08:09:08.616Z,97.40
2019-03-23T08:11:39.055Z,96.10
2019-03-23T08:14:09.588Z,97.80
2019-03-23T08:16:39.990Z,97.80
2019-03-23T08:19:10.519Z,95.50
2019-03-23T08:21:40.923Z,95.80
2019-03-23T08:24:11.521Z,95.30
2019-03-23T08:26:42.118Z,96.40
2019-03-23T08:29:12.627Z,95.20
2019-03-23T08:31:43.067Z,93.90
2019-03-23T08:34:13.542Z,95.50
2019-03-23T08:36:43.961Z,92.20
2019-03-23T08:39:14.427Z,93.10
2019-03-23T08:41:44.920Z,89.20
2019-03-23T08:44:15.447Z,92.10
2019-03-23T08:46:46.383Z,87.40
2019-03-23T08:49:16.954Z,88.20
2019-03-23T08:51:47.452Z,90.20
2019-03-23T08:54:17.927Z,88.40
2019-03-23T08:56:48.417Z,88.80
2019-03-23T08:59:20.808Z,91.30
2019-03-23T09:01:51.254Z,91.90
2019-03-23T09:04:21.786Z,91.70
2019-03-23T09:06:52.472Z,90.30
2019-03-23T09:09:22.922Z,88.90
2019-03-23T09:11:53.401Z,87.70
2019-03-23T09:14:23.949Z,86.20
2019-03-23T09:16:54.412Z,90.50
2019-03-23T09:19:25.455Z,86.80
2019-03-23T09:21:55.932Z,88.10
2019-03-23T09:24:26.544Z,90.70
2019-03-23T09:26:58.899Z,89.30
2019-03-23T09:29:29.427Z,87.40
2019-03-23T09:32:00.073Z,86.40
2019-03-23T09:34:30.471Z,83.50
2019-03-23T09:37:01.043Z,80.60
2019-03-23T09:39:31.559Z,80.00
2019-03-23T09:42:02.040Z,84.10
2019-03-23T09:44:32.465Z,80.00
2019-03-23T09:47:03.054Z,78.20
2019-03-23T09:49:33.623Z,75.70
2019-03-23T09:52:04.034Z,76.90
2019-03-23T09:54:34.600Z,75.60
2019-03-23T09:57:05.204Z,74.00
2019-03-23T09:59:35.674Z,75.90
2019-03-23T10:02:06.300Z,71.50
2019-03-23T10:04:36.692Z,77.50
2019-03-23T10:07:07.187Z,74.60
2019-03-23T10:09:37.640Z,73.80
2019-03-23T10:12:08.165Z,73.00
2019-03-23T10:14:38.672Z,70.70
2019-03-23T10:17:09.304Z,74.20
2019-03-23T10:19:39.810Z,74.90
2019-03-23T10:22:10.315Z,73.90
2019-03-23T10:24:40.848Z,74.00
2019-03-23T10:27:11.345Z,73.70
2019-03-23T10:29:41.791Z,73.30
2019-03-23T10:32:12.331Z,74.90
2019-03-23T10:34:42.775Z,70.90
2019-03-23T10:37:13.220Z,67.40
2019-03-23T10:39:43.640Z,67.80
2019-03-23T10:42:16.127Z,69.30
2019-03-23T10:44:46.160Z,65.40
2019-03-23T10:47:16.748Z,66.90
2019-03-23T10:49:47.334Z,65.00
2019-03-23T10:52:17.758Z,64.10
2019-03-23T10:54:48.208Z,61.60
2019-03-23T10:57:18.789Z,64.20
2019-03-23T10:59:49.355Z,60.90
2019-03-23T11:02:19.809Z,61.40
2019-03-23T11:04:50.270Z,64.50
2019-03-23T11:07:20.763Z,63.00
2019-03-23T11:09:51.182Z,65.00
2019-03-23T11:12:21.666Z,63.70
2019-03-23T11:14:52.420Z,62.10
2019-03-23T11:17:23.091Z,64.40
2019-03-23T11:19:53.555Z,59.80
2019-03-23T11:22:24.109Z,62.50
2019-03-23T11:24:54.622Z,63.90
2019-03-23T11:27:25.204Z,61.90
2019-03-23T11:29:55.626Z,59.20
2019-03-23T11:32:26.163Z,58.70
2019-03-23T11:34:56.579Z,59.90
2019-03-23T11:37:27.041Z,60.90
2019-03-23T11:39:57.639Z,60.70
2019-03-23T11:42:28.192Z,57.90
2019-03-23T11:44:58.752Z,56.50
2019-03-23T11:47:29.383Z,55.80
2019-03-23T11:49:59.851Z,53.00
2019-03-23T11:52:30.265Z,50.00
2019-03-23T11:55:00.921Z,50.30
2019-03-23T11:57:31.604Z,48.80
2019-03-23T12:00:02.085Z,48.90
2019-03-23T12:02:32.580Z,46.70
2019-03-23T12:05:03.042Z,46.40
2019-03-23T12:07:33.540Z,47.30
2019-03-23T12:10:04.171Z,47.90
2019-03-23T12:12:34.604Z,47.70
2019-03-23T12:15:05.254Z,47.10
2019-03-23T12:17:35.828Z,45.10
2019-03-23T12:20:06.739Z,45.20
2019-03-23T12:22:37.217Z,47.60
2019-03-23T12:25:08.000Z,45.70
2019-03-23T12:27:39.379Z,47.60
2019-03-23T12:30:11.854Z,45.80
2019-03-23T12:32:42.342Z,43.40
2019-03-23T12:35:13.102Z,42.70
2019-03-23T12:37:43.759Z,42.20
2019-03-23T12:40:14.763Z,41.20
2019-03-23T12:42:45.220Z,42.30
2019-03-23T12:45:15.751Z,43.10
2019-03-23T12:47:46.413Z,43.50
2019-03-23T12:50:16.989Z,42.30
2019-03-23T12:52:47.368Z,43.20
2019-03-23T12:55:17.967Z,41.10
2019-03-23T12:57:48.416Z,41.30
2019-03-23T13:00:19.132Z,41.30
2019-03-23T13:02:49.607Z,41.90
2019-03-23T13:05:20.184Z,40.70
2019-03-23T13:07:50.670Z,43.30
2019-03-23T13:10:21.095Z,40.60
2019-03-23T13:12:51.566Z,40.60
2019-03-23T13:15:22.082Z,40.30
2019-03-23T13:17:52.463Z,38.20
2019-03-23T13:20:22.966Z,40.10
2019-03-23T13:22:53.510Z,41.10
2019-03-23T13:25:24.031Z,40.80
2019-03-23T13:27:54.690Z,42.00
2019-03-23T13:30:25.197Z,41.50
2019-03-23T13:32:55.676Z,40.40
2019-03-23T13:35:26.155Z,39.20
2019-03-23T13:37:56.576Z,40.70
2019-03-23T13:40:27.008Z,42.00
2019-03-23T13:42:57.529Z,41.90
2019-03-23T13:45:27.923Z,43.10
2019-03-23T13:47:59.439Z,43.30
2019-03-23T13:50:30.608Z,41.50
2019-03-23T13:53:01.080Z,41.50
2019-03-23T13:55:33.303Z,40.40
2019-03-23T13:58:14.078Z,40.90
2019-03-23T14:00:44.762Z,40.90
2019-03-23T14:03:15.193Z,41.60
2019-03-23T14:05:45.810Z,42.10
2019-03-23T14:08:16.427Z,39.70
2019-03-23T14:10:47.047Z,41.20
2019-03-23T14:13:17.517Z,41.20
2019-03-23T14:15:48.251Z,41.70
2019-03-23T14:18:18.916Z,41.90
2019-03-23T14:20:49.439Z,42.80
2019-03-23T14:23:20.014Z,42.30
2019-03-23T14:25:50.642Z,41.20
2019-03-23T14:28:21.679Z,41.60
2019-03-23T14:30:55.896Z,40.50
2019-03-23T14:33:35.660Z,42.20
2019-03-23T14:36:06.638Z,41.50
2019-03-23T14:38:38.463Z,42.20
2019-03-23T14:41:09.246Z,42.20
2019-03-23T14:43:39.966Z,42.70
2019-03-23T14:46:10.892Z,41.20
2019-03-23T14:48:42.306Z,42.70
2019-03-23T14:51:13.395Z,41.50
2019-03-23T14:53:44.242Z,43.30
2019-03-23T14:56:14.994Z,42.30
2019-03-23T14:58:47.647Z,41.60
2019-03-23T15:01:18.605Z,42.20
2019-03-23T15:03:49.327Z,43.80
2019-03-23T15:06:20.023Z,44.00
2019-03-23T15:08:50.805Z,45.20
2019-03-23T15:11:21.588Z,46.40
2019-03-23T15:13:52.401Z,49.50
2019-03-23T15:16:23.189Z,47.00
2019-03-23T15:18:54.081Z,44.90
2019-03-23T15:21:24.766Z,45.00
2019-03-23T15:23:55.635Z,45.20
2019-03-23T15:26:27.545Z,45.30
2019-03-23T15:28:58.336Z,46.60
2019-03-23T15:31:29.573Z,47.50
2019-03-23T15:34:00.424Z,47.60
2019-03-23T15:36:31.258Z,47.70
2019-03-23T15:39:02.027Z,47.80
2019-03-23T15:41:32.808Z,49.90
2019-03-23T15:44:03.795Z,51.40
2019-03-23T15:46:34.839Z,53.10
2019-03-23T15:49:05.810Z,51.40
2019-03-23T15:51:36.564Z,51.60
2019-03-23T15:54:08.061Z,52.20
2019-03-23T15:56:38.918Z,53.00
2019-03-23T15:59:09.666Z,54.00
2019-03-23T16:01:40.851Z,53.70
2019-03-23T16:04:12.226Z,54.60
2019-03-23T16:06:43.095Z,54.00
2019-03-23T16:09:13.800Z,54.90
2019-03-23T16:11:44.775Z,54.00
2019-03-23T16:14:15.592Z,55.20
2019-03-23T16:16:46.487Z,55.70
2019-03-23T16:19:19.131Z,56.70
2019-03-23T16:21:50.020Z,56.40
2019-03-23T16:24:20.764Z,56.20
2019-03-23T16:26:52.411Z,56.60
2019-03-23T16:29:23.411Z,56.70
2019-03-23T16:31:54.449Z,57.00
2019-03-23T16:34:25.623Z,57.50
2019-03-23T16:36:57.290Z,56.60
2019-03-23T16:39:28.702Z,56.20
2019-03-23T16:41:59.752Z,57.10
2019-03-23T16:44:32.933Z,56.20
2019-03-23T16:47:04.394Z,56.90
2019-03-23T16:49:35.786Z,58.20
2019-03-23T16:52:07.580Z,57.60
2019-03-23T16:54:38.547Z,56.90
2019-03-23T16:57:09.636Z,57.90
2019-03-23T16:59:41.047Z,57.70
2019-03-23T17:02:12.702Z,57.90
2019-03-23T17:04:44.403Z,58.10
2019-03-23T17:07:16.065Z,58.00
2019-03-23T17:09:47.591Z,59.00
2019-03-23T17:12:19.867Z,58.30
2019-03-23T17:14:51.696Z,57.40
2019-03-23T17:17:23.915Z,58.00
2019-03-23T17:19:55.306Z,58.50
2019-03-23T17:22:28.246Z,58.80
2019-03-23T17:25:00.366Z,58.30
2019-03-23T17:27:31.563Z,57.20
2019-03-23T17:30:03.294Z,58.80
2019-03-23T17:32:34.601Z,59.80
2019-03-23T17:35:06.514Z,59.20
2019-03-23T17:37:38.311Z,60.80
2019-03-23T17:40:10.294Z,59.50
2019-03-23T17:42:41.855Z,59.30
2019-03-23T17:45:13.622Z,59.80
2019-03-23T17:47:45.269Z,59.90
2019-03-23T17:50:16.286Z,60.50
2019-03-23T17:52:47.035Z,60.90
2019-03-23T17:55:18.231Z,61.60
2019-03-23T17:57:50.076Z,60.30
2019-03-23T18:00:21.194Z,61.70
2019-03-23T18:02:52.296Z,61.20
2019-03-23T18:05:22.963Z,61.10
2019-03-23T18:07:53.785Z,59.80
2019-03-23T18:10:24.552Z,59.80
2019-03-23T18:12:55.396Z,59.80
2019-03-23T18:15:26.517Z,59.80
2019-03-23T18:17:57.538Z,58.60
2019-03-23T18:20:28.080Z,58.30
2019-03-23T18:22:59.322Z,58.30
2019-03-23T18:25:30.423Z,58.80
2019-03-23T18:28:02.509Z,60.80
2019-03-23T18:30:43.940Z,59.80
2019-03-23T18:33:15.192Z,59.20
2019-03-23T18:35:46.031Z,60.40
2019-03-23T18:38:16.710Z,59.60
2019-03-23T18:40:47.650Z,59.50
2019-03-23T18:43:27.029Z,59.60
2019-03-23T18:45:51.774Z,59.60
2019-03-23T18:48:23.249Z,60.50
2019-03-23T18:50:54.636Z,61.10
2019-03-23T18:53:27.229Z,61.60
2019-03-23T18:55:59.288Z,63.40
2019-03-23T18:58:31.421Z,62.40
2019-03-23T19:01:05.246Z,61.50
2019-03-23T19:03:36.183Z,60.60
2019-03-23T19:06:07.514Z,62.30
2019-03-23T19:08:41.295Z,63.80
2019-03-23T19:11:14.946Z,62.70
2019-03-23T19:13:47.835Z,63.20
2019-03-23T19:16:19.821Z,62.50
2019-03-23T19:18:51.245Z,62.60
2019-03-23T19:21:22.848Z,62.80
2019-03-23T19:23:56.183Z,62.40
2019-03-23T19:26:30.910Z,62.20
2019-03-23T19:29:09.344Z,62.10
2019-03-23T19:31:40.594Z,62.80
2019-03-23T19:34:12.542Z,62.30
2019-03-23T19:36:44.067Z,63.70
2019-03-23T19:39:15.957Z,67.70
2019-03-23T19:41:47.398Z,67.40
2019-03-23T19:44:19.532Z,66.50
2019-03-23T19:46:52.413Z,66.90
2019-03-23T19:49:23.934Z,66.20
2019-03-23T19:51:56.329Z,66.30
2019-03-23T19:54:28.828Z,66.30
2019-03-23T19:57:00.307Z,66.30
2019-03-23T19:59:32.920Z,67.80
2019-03-23T20:02:04.163Z,68.90
2019-03-23T20:04:35.509Z,70.00
2019-03-23T20:07:09.327Z,70.40
2019-03-23T20:09:41.151Z,70.30
2019-03-23T20:12:12.775Z,70.20
2019-03-23T20:14:44.942Z,70.00
2019-03-23T20:17:15.715Z,71.20
2019-03-23T20:19:46.509Z,70.80
2019-03-23T20:22:17.403Z,71.70
2019-03-23T20:24:48.305Z,71.80
2019-03-23T20:27:18.773Z,72.40
2019-03-23T20:29:49.364Z,71.00
2019-03-23T20:32:19.871Z,73.40
2019-03-23T20:34:50.431Z,74.20
2019-03-23T20:37:21.263Z,75.70
2019-03-23T20:39:52.027Z,76.80
2019-03-23T20:42:22.943Z,79.90
2019-03-23T20:44:54.503Z,82.00
2019-03-23T20:47:25.444Z,82.90
2019-03-23T20:49:56.483Z,83.10
2019-03-23T20:52:27.560Z,83.90
2019-03-23T20:54:58.579Z,85.60
2019-03-23T20:57:37.274Z,86.70
2019-03-23T21:00:01.941Z,87.80
2019-03-23T21:02:32.365Z,88.20
2019-03-23T21:05:02.753Z,88.30
2019-03-23T21:07:33.500Z,88.60
2019-03-23T21:10:04.543Z,88.60
2019-03-23T21:12:35.201Z,87.10
2019-03-23T21:15:06.239Z,86.80
2019-03-23T21:17:50.405Z,86.10
2019-03-23T21:20:10.636Z,87.00
2019-03-23T21:22:41.363Z,87.70
2019-03-23T21:25:12.199Z,87.10
2019-03-23T21:27:42.774Z,85.30
2019-03-23T21:30:14.901Z,88.70
2019-03-23T21:32:45.451Z,89.30
2019-03-23T21:35:16.133Z,88.90
2019-03-23T21:37:46.613Z,88.90
2019-03-23T21:40:17.162Z,88.80
2019-03-23T21:42:47.576Z,88.10
2019-03-23T21:45:18.074Z,90.10
2019-03-23T21:47:48.546Z,91.30
2019-03-23T21:50:21.693Z,90.70
2019-03-23T21:52:52.594Z,90.70
2019-03-23T21:55:23.376Z,91.30
2019-03-23T21:57:54.371Z,91.30
2019-03-23T22:00:32.629Z,90.30
2019-03-23T22:03:03.852Z,91.60
2019-03-23T22:05:34.615Z,92.70
2019-03-23T22:08:06.624Z,93.60
2019-03-23T22:10:37.670Z,94.40
2019-03-23T22:13:08.515Z,93.80
2019-03-23T22:15:39.339Z,92.70
2019-03-23T22:18:10.563Z,95.10
2019-03-23T22:20:40.954Z,94.50
2019-03-23T22:23:11.791Z,95.40
2019-03-23T22:25:42.615Z,97.90
2019-03-23T22:28:13.625Z,96.50
2019-03-23T22:30:44.948Z,98.00
2019-03-23T22:33:15.995Z,97.40
2019-03-23T22:35:46.744Z,96.10
2019-03-23T22:38:17.479Z,96.00
2019-03-23T22:40:48.387Z,96.10
2019-03-23T22:43:19.239Z,97.60
2019-03-23T22:45:49.940Z,97.40
2019-03-23T22:48:20.880Z,97.90
2019-03-23T22:50:51.661Z,98.10
2019-03-23T22:53:22.259Z,98.10
2019-03-23T22:56:11.459Z,97.80
2019-03-23T22:58:43.275Z,97.80
2019-03-23T23:01:14.157Z,96.40
2019-03-23T23:03:44.818Z,98.20
2019-03-23T23:06:15.582Z,97.70
2019-03-23T23:08:46.390Z,99.30
2019-03-23T23:11:17.239Z,99.90
2019-03-23T23:13:47.959Z,99.90
2019-03-23T23:16:18.867Z,99.90
2019-03-23T23:18:49.603Z,99.80
2019-03-23T23:21:20.287Z,99.90
2019-03-23T23:23:51.159Z,99.90
2019-03-23T23:26:22.007Z,99.90
2019-03-23T23:28:53.975Z,99.90
2019-03-23T23:31:24.739Z,99.90
2019-03-23T23:33:55.730Z,99.90
2019-03-23T23:36:26.514Z,99.90
2019-03-23T23:38:57.421Z,99.90
2019-03-23T23:41:28.195Z,99.90
2019-03-23T23:43:58.971Z,99.90
2019-03-23T23:46:29.677Z,99.90
2019-03-23T23:49:00.742Z,99.90
2019-03-23T23:51:31.499Z,99.90
2019-03-23T23:54:02.336Z,99.90
2019-03-23T23:56:33.234Z,99.90
2019-03-23T23:59:05.319Z,99.90
